Drimmelen, Netherlands
Current Conditions -  °F | °C
As of 3:55 AM on Tuesday 21 Oct 2014 (Local Time) from EHGR Reporting Station
Broken Clouds Broken Clouds  
Wind Chill: 54°   Ceiling: 6200
Heat Index: 54°   Visibility: 6mi
Dew Point: 52°   Wind: 9mph
Humidity: 94%   Direction: 210°SSW
Pressure: 29.83"   Gusts: NA
Location:  51.71°N, 4.8°E
Report Text: EHGR 210155Z AUTO 21008KT 9999 FEW023 BKN062 BKN068 12/11 Q1010 BLU
Loading
Personal Weather Stations






























Interactive Weather Map
Tropical Storm Tracking
New forecast layout! Learn more

10-Day Weather Forecast

Advertisements
Track Severe Weather on mobile